Time;durP1;ratioP1;P1;durP2;ratioP2;P2;SDS_P1;SDS_P2;PMS_P1;PMS_P2;Temp;Humidity;BMP_temperature;BMP_pressure;BME280_temperature;BME280_humidity;BME280_pressure;Samples;Min_cycle;Max_cycle;Signal;HPM_P1;HPM_P2
2024/01/04 00:00:33;;;;;;;25.40;13.50;;;;;;;-147.86;100.00;-17609.17;104660;1272;72504;-48
2024/01/04 00:03:01;;;;;;;21.40;12.70;;;;;;;-147.86;100.00;-17609.17;104741;1268;307036;-49
2024/01/04 00:05:28;;;;;;;19.50;13.10;;;;;;;-147.86;100.00;-17609.17;105148;1269;59269;-49
2024/01/04 00:07:56;;;;;;;25.80;14.10;;;;;;;-147.86;100.00;-17609.17;105128;1264;70941;-49
2024/01/04 00:10:24;;;;;;;21.10;12.70;;;;;;;-147.86;100.00;-17609.17;105131;1264;64475;-50
2024/01/04 00:12:53;;;;;;;19.10;11.60;;;;;;;-147.86;100.00;-17609.17;105119;1269;70733;-49
2024/01/04 00:15:21;;;;;;;23.00;12.40;;;;;;;-147.86;100.00;-17609.17;105108;1269;60757;-48
2024/01/04 00:17:48;;;;;;;24.30;12.90;;;;;;;-147.86;100.00;-17609.17;105161;1269;59567;-47
2024/01/04 00:53:12;;;;;;;19.40;11.10;;;;;;;-147.86;100.00;-17609.17;102884;1289;599960;-48
2024/01/04 00:55:39;;;;;;;24.10;11.50;;;;;;;-147.86;100.00;-17609.17;104864;1269;61591;-47
2024/01/04 00:58:07;;;;;;;24.30;10.90;;;;;;;-147.86;100.00;-17609.17;104943;1264;59317;-46
2024/01/04 01:00:35;;;;;;;20.10;10.50;;;;;;;-147.86;100.00;-17609.17;104896;1263;71323;-48
2024/01/04 01:03:03;;;;;;;18.70;11.00;;;;;;;-147.86;100.00;-17609.17;104979;1265;63911;-49
2024/01/04 01:05:31;;;;;;;27.20;11.30;;;;;;;-147.86;100.00;-17609.17;105557;1257;72595;-49
2024/01/04 01:08:01;;;;;;;18.80;11.00;;;;;;;-147.86;100.00;-17609.17;105409;1260;253782;-48
2024/01/04 01:10:29;;;;;;;15.10;10.00;;;;;;;-147.86;100.00;-17609.17;105675;1256;59269;-49
2024/01/04 01:12:57;;;;;;;19.20;10.00;;;;;;;-147.86;100.00;-17609.17;105621;1260;71174;-49
2024/01/04 01:15:25;;;;;;;18.50;10.80;;;;;;;-147.86;100.00;-17609.17;105605;1261;63973;-50
2024/01/04 01:17:53;;;;;;;21.30;10.20;;;;;;;-147.86;100.00;-17609.17;105616;1256;71702;-49
2024/01/04 01:20:20;;;;;;;22.40;10.50;;;;;;;-147.86;100.00;-17609.17;105603;1260;60398;-49
2024/01/04 01:22:48;;;;;;;20.60;9.90;;;;;;;-147.86;100.00;-17609.17;105605;1255;59607;-50
2024/01/04 01:25:16;;;;;;;24.20;10.70;;;;;;;-147.86;100.00;-17609.17;105588;1260;72136;-48
2024/01/04 01:27:44;;;;;;;17.80;10.20;;;;;;;-147.86;100.00;-17609.17;105603;1254;62730;-50
2024/01/04 01:30:11;;;;;;;22.00;10.30;;;;;;;-147.86;100.00;-17609.17;105587;1260;70384;-52
2024/01/04 01:32:40;;;;;;;19.50;10.00;;;;;;;-147.86;100.00;-17609.17;105574;1257;60903;-50
2024/01/04 01:35:08;;;;;;;17.70;9.60;;;;;;;-147.86;100.00;-17609.17;105608;1260;59586;-50
2024/01/04 01:37:37;;;;;;;20.30;9.60;;;;;;;-147.86;100.00;-17609.17;105919;1251;73013;-48
2024/01/04 01:40:06;;;;;;;17.10;9.60;;;;;;;-147.86;100.00;-17609.17;106053;1257;63417;-52
2024/01/04 01:42:34;;;;;;;20.20;9.70;;;;;;;-147.86;100.00;-17609.17;105967;1256;72664;-51
2024/01/04 01:45:02;;;;;;;19.40;9.50;;;;;;;-147.86;100.00;-17609.17;105954;1254;60766;-48
2024/01/04 01:47:30;;;;;;;18.60;9.40;;;;;;;-147.86;100.00;-17609.17;106028;1252;59520;-50
2024/01/04 01:49:58;;;;;;;18.90;10.20;;;;;;;-147.86;100.00;-17609.17;105742;1251;71747;-53
2024/01/04 01:52:25;;;;;;;17.30;8.80;;;;;;;-147.86;100.00;-17609.17;105684;1257;63896;-54
2024/01/04 01:54:54;;;;;;;17.50;9.60;;;;;;;-147.86;100.00;-17609.17;105860;1256;71683;-51
2024/01/04 01:57:22;;;;;;;20.60;10.30;;;;;;;-147.86;100.00;-17609.17;105671;1251;61689;-51
2024/01/04 01:59:49;;;;;;;18.90;9.50;;;;;;;-147.86;100.00;-17609.17;105727;1258;59613;-52
2024/01/04 02:02:17;;;;;;;25.90;9.90;;;;;;;-147.86;100.00;-17609.17;105719;1259;73007;-52
2024/01/04 02:04:45;;;;;;;22.00;9.30;;;;;;;-147.86;100.00;-17609.17;105703;1254;64472;-50
2024/01/04 02:07:13;;;;;;;22.00;10.10;;;;;;;-147.86;100.00;-17609.17;105679;1254;72628;-49
2024/01/04 02:09:41;;;;;;;15.10;8.20;;;;;;;-147.86;100.00;-17609.17;105725;1257;60390;-52
2024/01/04 02:12:13;;;;;;;19.50;9.10;;;;;;;-147.86;100.00;-17609.17;105735;1251;59532;-52
2024/01/04 02:14:41;;;;;;;12.80;8.60;;;;;;;-147.86;100.00;-17609.17;105740;1253;71780;-48
2024/01/04 02:17:09;;;;;;;16.80;8.60;;;;;;;-147.86;100.00;-17609.17;105666;1252;63123;-51
2024/01/04 02:19:36;;;;;;;23.50;9.40;;;;;;;-147.86;100.00;-17609.17;105712;1253;71355;-48
2024/01/04 02:22:04;;;;;;;18.80;9.20;;;;;;;-147.86;100.00;-17609.17;105713;1258;60433;-51
2024/01/04 02:24:33;;;;;;;20.20;9.00;;;;;;;-147.86;100.00;-17609.17;105722;1251;59938;-50
2024/01/04 02:27:00;;;;;;;21.20;9.40;;;;;;;-147.86;100.00;-17609.17;105693;1254;71842;-49
2024/01/04 02:29:28;;;;;;;16.30;8.60;;;;;;;-147.86;100.00;-17609.17;105739;1257;63164;-52
2024/01/04 02:31:56;;;;;;;17.40;8.20;;;;;;;-147.86;100.00;-17609.17;105691;1253;71413;-52
2024/01/04 02:34:23;;;;;;;18.10;8.90;;;;;;;-147.86;100.00;-17609.17;105686;1255;60544;-52
2024/01/04 02:36:51;;;;;;;18.50;8.40;;;;;;;-147.86;100.00;-17609.17;105712;1257;59610;-51
2024/01/04 02:39:20;;;;;;;18.50;8.80;;;;;;;-147.86;100.00;-17609.17;105689;1258;73040;-53
2024/01/04 02:41:48;;;;;;;17.80;8.00;;;;;;;-147.86;100.00;-17609.17;105721;1257;64359;-51
2024/01/04 02:44:15;;;;;;;21.80;9.90;;;;;;;-147.86;100.00;-17609.17;105870;1254;72502;-52
2024/01/04 02:46:44;;;;;;;18.00;8.90;;;;;;;-147.86;100.00;-17609.17;105684;1255;59740;-49
2024/01/04 02:49:11;;;;;;;13.90;8.50;;;;;;;-147.86;100.00;-17609.17;105722;1253;60028;-48
2024/01/04 02:51:39;;;;;;;17.20;7.80;;;;;;;-147.86;100.00;-17609.17;105679;1251;71560;-53
2024/01/04 02:54:08;;;;;;;13.70;7.80;;;;;;;-147.86;100.00;-17609.17;105714;1253;63098;-52
2024/01/04 02:56:36;;;;;;;14.30;7.90;;;;;;;-147.86;100.00;-17609.17;105686;1253;71393;-48
2024/01/04 02:59:04;;;;;;;16.70;8.10;;;;;;;-147.86;100.00;-17609.17;105892;1252;61626;-50
2024/01/04 03:01:33;;;;;;;22.60;8.40;;;;;;;-147.86;100.00;-17609.17;105851;1257;59522;-52
2024/01/04 03:04:00;;;;;;;16.70;8.60;;;;;;;-147.86;100.00;-17609.17;105723;1257;73021;-50
2024/01/04 03:06:30;;;;;;;14.50;8.00;;;;;;;-147.86;100.00;-17609.17;105679;1257;63168;-52
2024/01/04 03:08:58;;;;;;;13.00;7.80;;;;;;;-147.86;100.00;-17609.17;105875;1253;71431;-49
2024/01/04 03:11:27;;;;;;;14.20;7.70;;;;;;;-147.86;100.00;-17609.17;105695;1257;61660;-50
2024/01/04 03:13:54;;;;;;;14.60;7.40;;;;;;;-147.86;100.00;-17609.17;105730;1257;59696;-49
2024/01/04 03:16:22;;;;;;;16.10;8.40;;;;;;;-147.86;100.00;-17609.17;105844;1257;70923;-51
2024/01/04 03:18:50;;;;;;;16.90;8.40;;;;;;;-147.86;100.00;-17609.17;105721;1253;63502;-54
2024/01/04 03:21:18;;;;;;;14.00;7.50;;;;;;;-147.86;100.00;-17609.17;105696;1257;71434;-52
2024/01/04 03:23:46;;;;;;;14.90;8.10;;;;;;;-147.86;100.00;-17609.17;105867;1252;59601;-50
2024/01/04 03:26:14;;;;;;;19.70;8.10;;;;;;;-147.86;100.00;-17609.17;105861;1251;59998;-49
2024/01/04 03:28:42;;;;;;;15.10;8.70;;;;;;;-147.86;100.00;-17609.17;105820;1257;73061;-50
2024/01/04 03:31:09;;;;;;;20.30;9.00;;;;;;;-147.86;100.00;-17609.17;105686;1253;63119;-51
2024/01/04 03:33:38;;;;;;;14.70;7.40;;;;;;;-147.86;100.00;-17609.17;105655;1253;72598;-52
2024/01/04 03:36:07;;;;;;;14.10;7.70;;;;;;;-147.86;100.00;-17609.17;105672;1253;60848;-47
2024/01/04 03:38:35;;;;;;;16.50;9.10;;;;;;;-147.86;100.00;-17609.17;105715;1257;59533;-52
2024/01/04 03:41:03;;;;;;;15.90;7.80;;;;;;;-147.86;100.00;-17609.17;105820;1254;72814;-48
2024/01/04 03:43:31;;;;;;;18.20;8.30;;;;;;;-147.86;100.00;-17609.17;105686;1254;65332;-50
2024/01/04 03:45:59;;;;;;;12.60;7.80;;;;;;;-147.86;100.00;-17609.17;105702;1253;71408;-49
2024/01/04 03:48:26;;;;;;;14.60;8.10;;;;;;;-147.86;100.00;-17609.17;105677;1253;60906;-48
2024/01/04 03:50:54;;;;;;;12.30;7.70;;;;;;;-147.86;100.00;-17609.17;105692;1257;59592;-50
2024/01/04 03:53:22;;;;;;;16.00;7.70;;;;;;;-147.86;100.00;-17609.17;105696;1253;71881;-49
2024/01/04 03:55:50;;;;;;;14.00;8.00;;;;;;;-147.86;100.00;-17609.17;105891;1251;64377;-53
2024/01/04 03:58:17;;;;;;;17.20;7.50;;;;;;;-147.86;100.00;-17609.17;105669;1253;71482;-52
2024/01/04 04:00:45;;;;;;;14.00;7.70;;;;;;;-147.86;100.00;-17609.17;105763;1254;60614;-48
2024/01/04 04:03:18;;;;;;;13.10;7.70;;;;;;;-147.86;100.00;-17609.17;105716;1256;59610;-51
2024/01/04 04:05:46;;;;;;;18.30;8.40;;;;;;;-147.86;100.00;-17609.17;105926;1257;73011;-53
2024/01/04 04:08:14;;;;;;;15.00;8.10;;;;;;;-147.86;100.00;-17609.17;105769;1254;63086;-58
2024/01/04 04:10:42;;;;;;;15.80;7.60;;;;;;;-147.86;100.00;-17609.17;105682;1257;70676;-57
2024/01/04 04:13:10;;;;;;;12.90;7.50;;;;;;;-147.86;100.00;-17609.17;105871;1256;59644;-56
2024/01/04 04:15:38;;;;;;;16.30;7.90;;;;;;;-147.86;100.00;-17609.17;105816;1257;59979;-54
2024/01/04 04:18:05;;;;;;;16.30;7.60;;;;;;;-147.86;100.00;-17609.17;105687;1257;73044;-51
2024/01/04 04:20:33;;;;;;;21.50;9.00;;;;;;;-147.86;100.00;-17609.17;105762;1258;64355;-56
2024/01/04 04:23:01;;;;;;;16.20;7.80;;;;;;;-147.86;100.00;-17609.17;105701;1253;71366;-52
2024/01/04 04:25:28;;;;;;;12.90;7.20;;;;;;;-147.86;100.00;-17609.17;105668;1253;60436;-52
2024/01/04 04:27:56;;;;;;;14.40;8.30;;;;;;;-147.86;100.00;-17609.17;105707;1252;60169;-53
2024/01/04 04:30:24;;;;;;;16.60;8.10;;;;;;;-147.86;100.00;-17609.17;105677;1257;72309;-48
2024/01/04 04:32:51;;;;;;;18.10;8.40;;;;;;;-147.86;100.00;-17609.17;105756;1251;63192;-51
2024/01/04 04:35:19;;;;;;;16.10;7.70;;;;;;;-147.86;100.00;-17609.17;105715;1253;71469;-49
2024/01/04 04:37:47;;;;;;;16.60;8.00;;;;;;;-147.86;100.00;-17609.17;105686;1252;60015;-53
2024/01/04 04:40:15;;;;;;;15.10;7.70;;;;;;;-147.86;100.00;-17609.17;105715;1257;59526;-58
2024/01/04 04:42:43;;;;;;;14.30;7.40;;;;;;;-147.86;100.00;-17609.17;105813;1252;71758;-53
2024/01/04 04:45:10;;;;;;;18.20;8.90;;;;;;;-147.86;100.00;-17609.17;105892;1253;63415;-50
2024/01/04 04:54:47;;;;;;;18.30;7.50;;;;;;;-147.86;100.00;-17609.17;102732;1295;600223;-55
2024/01/04 04:57:15;;;;;;;13.10;7.60;;;;;;;-147.86;100.00;-17609.17;105063;1266;59309;-52
2024/01/04 04:59:44;;;;;;;12.10;7.20;;;;;;;-147.86;100.00;-17609.17;105481;1263;59315;-50
2024/01/04 05:02:12;;;;;;;14.10;7.20;;;;;;;-147.86;100.00;-17609.17;105585;1257;70985;-52
2024/01/04 05:04:40;;;;;;;13.50;6.80;;;;;;;-147.86;100.00;-17609.17;105542;1257;63217;-48
2024/01/04 05:07:09;;;;;;;10.50;5.90;;;;;;;-147.86;100.00;-17609.17;105527;1261;71371;-51
2024/01/04 05:09:36;;;;;;;11.00;7.10;;;;;;;-147.86;100.00;-17609.17;105441;1260;248138;-52
2024/01/04 05:12:04;;;;;;;14.00;6.80;;;;;;;-147.86;100.00;-17609.17;105589;1255;59253;-51
2024/01/04 05:14:32;;;;;;;14.80;7.70;;;;;;;-147.86;100.00;-17609.17;105629;1256;70720;-52
2024/01/04 05:17:00;;;;;;;12.70;7.20;;;;;;;-147.86;100.00;-17609.17;105603;1258;64393;-51
2024/01/04 05:19:28;;;;;;;11.90;6.90;;;;;;;-147.86;100.00;-17609.17;105603;1261;72659;-54
2024/01/04 05:21:56;;;;;;;10.60;7.10;;;;;;;-147.86;100.00;-17609.17;105587;1261;60373;-50
2024/01/04 05:24:23;;;;;;;12.40;6.60;;;;;;;-147.86;100.00;-17609.17;105608;1255;59983;-53
2024/01/04 05:26:52;;;;;;;10.70;6.40;;;;;;;-147.86;100.00;-17609.17;105627;1255;71497;-52
2024/01/04 05:29:19;;;;;;;11.60;6.80;;;;;;;-147.86;100.00;-17609.17;105657;1261;63155;-52
2024/01/04 05:31:47;;;;;;;15.80;7.20;;;;;;;-147.86;100.00;-17609.17;105614;1258;71436;-50
2024/01/04 05:34:15;;;;;;;10.30;6.30;;;;;;;-147.86;100.00;-17609.17;105617;1257;59813;-49
2024/01/04 05:36:43;;;;;;;14.40;6.80;;;;;;;-147.86;100.00;-17609.17;105537;1262;59550;-51
2024/01/04 05:39:10;;;;;;;10.80;6.60;;;;;;;-147.86;100.00;-17609.17;105600;1260;71816;-52
2024/01/04 05:41:39;;;;;;;17.50;6.30;;;;;;;-147.86;100.00;-17609.17;105581;1256;63151;-52
2024/01/04 05:55:08;;;;;;;9.60;6.20;;;;;;;-147.86;100.00;-17609.17;103650;1281;600947;-50
2024/01/04 05:57:37;;;;;;;10.20;5.60;;;;;;;-147.86;100.00;-17609.17;105090;1266;59600;-52
2024/01/04 06:00:07;;;;;;;10.60;6.40;;;;;;;-147.86;100.00;-17609.17;105087;1266;59622;-49
2024/01/04 06:02:35;;;;;;;14.10;5.90;;;;;;;-147.86;100.00;-17609.17;105077;1270;71308;-53
2024/01/04 06:05:03;;;;;;;11.20;7.20;;;;;;;-147.86;100.00;-17609.17;105100;1264;63143;-53
2024/01/04 06:07:32;;;;;;;13.30;6.90;;;;;;;-147.86;100.00;-17609.17;105104;1269;72626;-51
2024/01/04 06:09:59;;;;;;;10.20;6.90;;;;;;;-147.86;100.00;-17609.17;105074;1263;208851;-49
2024/01/04 06:12:27;;;;;;;14.10;7.00;;;;;;;-147.86;100.00;-17609.17;105195;1266;59327;-49
2024/01/04 06:14:55;;;;;;;9.90;6.70;;;;;;;-147.86;100.00;-17609.17;105214;1264;70944;-53
2024/01/04 06:17:24;;;;;;;12.60;6.10;;;;;;;-147.86;100.00;-17609.17;105230;1266;63292;-48
2024/01/04 06:19:51;;;;;;;13.40;6.60;;;;;;;-147.86;100.00;-17609.17;105236;1266;71849;-50
2024/01/04 06:22:19;;;;;;;12.20;6.80;;;;;;;-147.86;100.00;-17609.17;105200;1264;60030;-53
2024/01/04 06:24:47;;;;;;;11.50;6.80;;;;;;;-147.86;100.00;-17609.17;105197;1264;60866;-52
2024/01/04 06:27:14;;;;;;;13.40;7.00;;;;;;;-147.86;100.00;-17609.17;105211;1263;71742;-52
2024/01/04 06:29:44;;;;;;;12.40;7.40;;;;;;;-147.86;100.00;-17609.17;105177;1264;64381;-53
2024/01/04 06:32:12;;;;;;;12.10;6.30;;;;;;;-147.86;100.00;-17609.17;105214;1264;71430;-47
2024/01/04 06:34:40;;;;;;;9.90;5.70;;;;;;;-147.86;100.00;-17609.17;105166;1262;60439;-52
2024/01/04 06:37:09;;;;;;;11.30;6.80;;;;;;;-147.86;100.00;-17609.17;105262;1266;59739;-49
2024/01/04 06:39:37;;;;;;;12.50;6.80;;;;;;;-147.86;100.00;-17609.17;105243;1266;73431;-49
2024/01/04 06:42:06;;;;;;;15.80;7.70;;;;;;;-147.86;100.00;-17609.17;105229;1264;63213;-55
2024/01/04 06:44:33;;;;;;;13.60;6.80;;;;;;;-147.86;100.00;-17609.17;104955;1266;71389;-52
2024/01/04 06:47:14;;;;;;;13.80;7.80;;;;;;;-147.86;100.00;-17609.17;104840;1267;59720;-52
2024/01/04 06:49:42;;;;;;;16.40;7.60;;;;;;;-147.86;100.00;-17609.17;105030;1261;60574;-53
2024/01/04 06:52:11;;;;;;;13.70;7.00;;;;;;;-147.86;100.00;-17609.17;105555;1257;71785;-50
2024/01/04 06:54:39;;;;;;;13.90;7.30;;;;;;;-147.86;100.00;-17609.17;105552;1263;64442;-50
2024/01/04 06:57:07;;;;;;;10.40;7.60;;;;;;;-147.86;100.00;-17609.17;105532;1263;72706;-53
2024/01/04 06:59:35;;;;;;;16.10;7.10;;;;;;;-147.86;100.00;-17609.17;105539;1257;60348;-54
2024/01/04 07:02:04;;;;;;;12.30;6.30;;;;;;;-147.86;100.00;-17609.17;105571;1263;59733;-48
2024/01/04 07:04:33;;;;;;;12.90;7.70;;;;;;;-147.86;100.00;-17609.17;105559;1257;71808;-49
2024/01/04 07:07:01;;;;;;;13.30;7.10;;;;;;;-147.86;100.00;-17609.17;105559;1258;63713;-52
2024/01/04 07:09:28;;;;;;;16.20;7.80;;;;;;;-147.86;100.00;-17609.17;105622;1262;71620;-51
2024/01/04 07:11:56;;;;;;;15.50;7.50;;;;;;;-147.86;100.00;-17609.17;105519;1260;59986;-52
2024/01/04 07:14:24;;;;;;;11.50;6.60;;;;;;;-147.86;100.00;-17609.17;105557;1263;59608;-49
2024/01/04 07:16:52;;;;;;;12.30;6.80;;;;;;;-147.86;100.00;-17609.17;105579;1257;71987;-53
2024/01/04 07:19:22;;;;;;;11.90;6.80;;;;;;;-147.86;100.00;-17609.17;105580;1257;64332;-49
2024/01/04 07:21:51;;;;;;;11.60;6.70;;;;;;;-147.86;100.00;-17609.17;105590;1263;71450;-53
2024/01/04 07:24:20;;;;;;;10.20;5.90;;;;;;;-147.86;100.00;-17609.17;105588;1257;59740;-50
2024/01/04 07:26:48;;;;;;;12.50;7.40;;;;;;;-147.86;100.00;-17609.17;105534;1262;59617;-54
2024/01/04 07:29:16;;;;;;;11.30;6.50;;;;;;;-147.86;100.00;-17609.17;105541;1257;71737;-51
2024/01/04 07:31:44;;;;;;;10.40;6.10;;;;;;;-147.86;100.00;-17609.17;105544;1263;67406;-53
2024/01/04 07:34:12;;;;;;;12.30;5.90;;;;;;;-147.86;100.00;-17609.17;105566;1262;71431;-51
2024/01/04 07:36:40;;;;;;;9.20;4.90;;;;;;;-147.86;100.00;-17609.17;105550;1258;60447;-51
2024/01/04 07:39:07;;;;;;;9.20;5.90;;;;;;;-147.86;100.00;-17609.17;105576;1257;59956;-51
2024/01/04 07:41:36;;;;;;;10.90;5.90;;;;;;;-147.86;100.00;-17609.17;105600;1257;71801;-53
2024/01/04 07:44:07;;;;;;;7.90;5.70;;;;;;;-147.86;100.00;-17609.17;105478;1257;64455;-48
2024/01/04 07:46:35;;;;;;;8.60;5.90;;;;;;;-147.86;100.00;-17609.17;105604;1263;72626;-50
2024/01/04 07:49:10;;;;;;;8.30;5.40;;;;;;;-147.86;100.00;-17609.17;105550;1263;61497;-49
2024/01/04 07:51:38;;;;;;;10.40;5.90;;;;;;;-147.86;100.00;-17609.17;105563;1261;59621;-50
2024/01/04 07:54:06;;;;;;;11.00;6.10;;;;;;;-147.86;100.00;-17609.17;105581;1262;73045;-52
2024/01/04 07:56:34;;;;;;;15.50;6.20;;;;;;;-147.86;100.00;-17609.17;105555;1257;64010;-51
2024/01/04 07:59:02;;;;;;;9.60;5.70;;;;;;;-147.86;100.00;-17609.17;105564;1261;71412;-52
2024/01/04 08:01:30;;;;;;;13.80;6.10;;;;;;;-147.86;100.00;-17609.17;105572;1257;60693;-51
2024/01/04 08:03:59;;;;;;;10.30;6.30;;;;;;;-147.86;100.00;-17609.17;105616;1263;59666;-52
2024/01/04 08:06:27;;;;;;;13.00;5.90;;;;;;;-147.86;100.00;-17609.17;105612;1257;71559;-54
2024/01/04 08:08:55;;;;;;;11.00;5.80;;;;;;;-147.86;100.00;-17609.17;105561;1258;63950;-51
2024/01/04 08:11:23;;;;;;;9.60;5.80;;;;;;;-147.86;100.00;-17609.17;105549;1257;72706;-51
2024/01/04 08:13:51;;;;;;;9.10;6.00;;;;;;;-147.86;100.00;-17609.17;105582;1258;59653;-51
2024/01/04 08:16:19;;;;;;;11.50;5.90;;;;;;;-147.86;100.00;-17609.17;105539;1262;59692;-50
2024/01/04 08:18:48;;;;;;;11.40;6.20;;;;;;;-147.86;100.00;-17609.17;105539;1263;70952;-50
2024/01/04 08:21:16;;;;;;;8.90;5.80;;;;;;;-147.86;100.00;-17609.17;105573;1259;63281;-53
2024/01/04 08:23:45;;;;;;;6.80;4.90;;;;;;;-147.86;100.00;-17609.17;105604;1257;71726;-50
2024/01/04 08:26:12;;;;;;;9.90;5.50;;;;;;;-147.86;100.00;-17609.17;105516;1262;60406;-50
2024/01/04 08:28:40;;;;;;;11.70;5.30;;;;;;;-147.86;100.00;-17609.17;105585;1257;59756;-51
2024/01/04 08:31:08;;;;;;;12.90;5.70;;;;;;;-147.86;100.00;-17609.17;105574;1262;72978;-51
2024/01/04 08:33:36;;;;;;;12.90;5.80;;;;;;;-147.86;100.00;-17609.17;105539;1258;63121;-50
2024/01/04 08:36:04;;;;;;;8.10;5.10;;;;;;;-147.86;100.00;-17609.17;105618;1257;70397;-50
2024/01/04 08:38:33;;;;;;;10.70;5.50;;;;;;;-147.86;100.00;-17609.17;105636;1260;60408;-49
2024/01/04 08:41:01;;;;;;;8.90;5.20;;;;;;;-147.86;100.00;-17609.17;105571;1257;60081;-53
2024/01/04 08:43:29;;;;;;;9.30;5.50;;;;;;;-147.86;100.00;-17609.17;105583;1260;73010;-48
2024/01/04 08:45:57;;;;;;;10.90;5.80;;;;;;;-147.86;100.00;-17609.17;105564;1257;64450;-51
2024/01/04 08:48:24;;;;;;;7.80;5.60;;;;;;;-147.86;100.00;-17609.17;105538;1257;72046;-50
2024/01/04 08:50:52;;;;;;;7.90;5.50;;;;;;;-147.86;100.00;-17609.17;105622;1260;61414;-53
2024/01/04 08:53:20;;;;;;;10.90;5.00;;;;;;;-147.86;100.00;-17609.17;105576;1257;60039;-50
2024/01/04 08:55:49;;;;;;;7.60;5.30;;;;;;;-147.86;100.00;-17609.17;105611;1258;71764;-51
2024/01/04 08:58:17;;;;;;;12.00;5.20;;;;;;;-147.86;100.00;-17609.17;105614;1260;63223;-52
2024/01/04 09:00:44;;;;;;;9.70;4.80;;;;;;;-147.86;100.00;-17609.17;105544;1260;71368;-51
2024/01/04 09:03:12;;;;;;;6.80;4.60;;;;;;;-147.86;100.00;-17609.17;105597;1260;61624;-49
2024/01/04 09:05:40;;;;;;;8.20;4.60;;;;;;;-147.86;100.00;-17609.17;105578;1257;62319;-49
2024/01/04 09:08:09;;;;;;;10.80;5.00;;;;;;;-147.86;100.00;-17609.17;105578;1260;71792;-54
2024/01/04 09:10:37;;;;;;;8.70;4.80;;;;;;;-147.86;100.00;-17609.17;105654;1257;63549;-51
2024/01/04 09:13:05;;;;;;;6.60;4.50;;;;;;;-147.86;100.00;-17609.17;105771;1253;72677;-51
2024/01/04 09:15:32;;;;;;;9.40;4.40;;;;;;;-147.86;100.00;-17609.17;105775;1253;61100;-52
2024/01/04 09:18:00;;;;;;;13.40;4.60;;;;;;;-147.86;100.00;-17609.17;105870;1253;59698;-49
2024/01/04 09:20:28;;;;;;;7.70;4.60;;;;;;;-147.86;100.00;-17609.17;105730;1258;72956;-53
2024/01/04 09:22:56;;;;;;;7.00;4.70;;;;;;;-147.86;100.00;-17609.17;105736;1257;64254;-50
2024/01/04 09:25:24;;;;;;;7.00;4.60;;;;;;;-147.86;100.00;-17609.17;105804;1254;74659;-52
2024/01/04 09:27:55;;;;;;;6.40;4.00;;;;;;;-147.86;100.00;-17609.17;105779;1254;60400;-50
2024/01/04 09:30:23;;;;;;;9.10;4.20;;;;;;;-147.86;100.00;-17609.17;105837;1253;59743;-51
2024/01/04 09:32:51;;;;;;;8.30;5.00;;;;;;;-147.86;100.00;-17609.17;105866;1257;73067;-51
2024/01/04 09:35:22;;;;;;;7.90;4.50;;;;;;;-147.86;100.00;-17609.17;105795;1257;63202;-49
2024/01/04 09:37:50;;;;;;;7.80;4.60;;;;;;;-147.86;100.00;-17609.17;105749;1252;72586;-52
2024/01/04 09:40:21;;;;;;;6.30;4.10;;;;;;;-147.86;100.00;-17609.17;105836;1257;62341;-54
2024/01/04 09:42:51;;;;;;;9.60;5.10;;;;;;;-147.86;100.00;-17609.17;105781;1257;59706;-51
2024/01/04 09:45:21;;;;;;;7.90;5.40;;;;;;;-147.86;100.00;-17609.17;105792;1254;73335;-53
2024/01/04 09:47:50;;;;;;;9.10;5.00;;;;;;;-147.86;100.00;-17609.17;105833;1257;64322;-51
2024/01/04 09:50:20;;;;;;;8.50;4.90;;;;;;;-147.86;100.00;-17609.17;105865;1254;72594;-54
2024/01/04 09:52:51;;;;;;;7.20;4.70;;;;;;;-147.86;100.00;-17609.17;105770;1253;61632;-53
2024/01/04 09:55:20;;;;;;;7.10;4.90;;;;;;;-147.86;100.00;-17609.17;105809;1253;59532;-50
2024/01/04 09:57:48;;;;;;;6.90;4.60;;;;;;;-147.86;100.00;-17609.17;105815;1252;72867;-51
2024/01/04 10:00:17;;;;;;;7.30;4.80;;;;;;;-147.86;100.00;-17609.17;105811;1256;64479;-54
2024/01/04 10:02:44;;;;;;;6.90;4.40;;;;;;;-147.86;100.00;-17609.17;105798;1257;71384;-53
2024/01/04 10:05:14;;;;;;;7.40;4.50;;;;;;;-147.86;100.00;-17609.17;105754;1254;62837;-53
2024/01/04 10:07:44;;;;;;;8.10;5.10;;;;;;;-147.86;100.00;-17609.17;105798;1254;60498;-53
2024/01/04 10:10:15;;;;;;;6.80;4.60;;;;;;;-147.86;100.00;-17609.17;105765;1252;72626;-53
2024/01/04 10:12:44;;;;;;;8.30;5.00;;;;;;;-147.86;100.00;-17609.17;105741;1252;64325;-50
2024/01/04 10:15:15;;;;;;;6.30;5.00;;;;;;;-147.86;100.00;-17609.17;105807;1254;74861;-52
2024/01/04 10:17:45;;;;;;;9.20;5.30;;;;;;;-147.86;100.00;-17609.17;105774;1254;60620;-51
2024/01/04 10:20:13;;;;;;;7.20;5.00;;;;;;;-147.86;100.00;-17609.17;105736;1252;60514;-51
2024/01/04 10:22:42;;;;;;;7.40;5.40;;;;;;;-147.86;100.00;-17609.17;105777;1253;73051;-52
2024/01/04 10:25:12;;;;;;;11.00;5.80;;;;;;;-147.86;100.00;-17609.17;105705;1256;63255;-52
2024/01/04 10:27:40;;;;;;;7.20;5.10;;;;;;;-147.86;100.00;-17609.17;105756;1254;75021;-51
2024/01/04 10:30:08;;;;;;;8.10;5.50;;;;;;;-147.86;100.00;-17609.17;105761;1257;61140;-52
2024/01/04 10:32:36;;;;;;;9.30;6.10;;;;;;;-147.86;100.00;-17609.17;105787;1254;62275;-54
2024/01/04 10:35:08;;;;;;;9.30;5.40;;;;;;;-147.86;100.00;-17609.17;105642;1254;72594;-51
2024/01/04 10:37:37;;;;;;;11.40;6.30;;;;;;;-147.86;100.00;-17609.17;105738;1254;63151;-50
2024/01/04 10:40:07;;;;;;;8.40;5.30;;;;;;;-147.86;100.00;-17609.17;105773;1254;72257;-52
2024/01/04 10:42:35;;;;;;;9.90;5.60;;;;;;;-147.86;100.00;-17609.17;105785;1257;60408;-48
2024/01/04 10:45:04;;;;;;;9.00;5.60;;;;;;;-147.86;100.00;-17609.17;105789;1257;60341;-50
2024/01/04 10:47:33;;;;;;;8.90;6.10;;;;;;;-147.86;100.00;-17609.17;105835;1256;75830;-48
2024/01/04 10:50:03;;;;;;;10.90;6.10;;;;;;;-147.86;100.00;-17609.17;105738;1254;66841;-51
2024/01/04 10:52:31;;;;;;;11.00;6.00;;;;;;;-147.86;100.00;-17609.17;105675;1252;73954;-51
2024/01/04 10:55:00;;;;;;;9.60;6.10;;;;;;;-147.86;100.00;-17609.17;105776;1254;60449;-51
2024/01/04 10:57:30;;;;;;;8.10;5.60;;;;;;;-147.86;100.00;-17609.17;105919;1252;60768;-49
2024/01/04 10:59:58;;;;;;;9.90;6.20;;;;;;;-147.86;100.00;-17609.17;105796;1254;73108;-51
2024/01/04 11:02:26;;;;;;;8.20;5.80;;;;;;;-147.86;100.00;-17609.17;105707;1254;65464;-50
2024/01/04 11:04:53;;;;;;;9.60;5.50;;;;;;;-147.86;100.00;-17609.17;105668;1258;71386;-49
2024/01/04 11:07:21;;;;;;;7.80;5.20;;;;;;;-147.86;100.00;-17609.17;105728;1257;60521;-51
2024/01/04 11:09:49;;;;;;;7.80;5.90;;;;;;;-147.86;100.00;-17609.17;105781;1253;60432;-51
2024/01/04 11:12:17;;;;;;;7.30;5.30;;;;;;;-147.86;100.00;-17609.17;105727;1253;74002;-52
2024/01/04 11:14:46;;;;;;;9.20;4.90;;;;;;;-147.86;100.00;-17609.17;105740;1254;65231;-53
2024/01/04 11:17:40;;;;;;;7.10;5.20;;;;;;;-147.86;100.00;-17609.17;105818;1253;72978;-53
2024/01/04 11:20:35;;;;;;;8.40;5.00;;;;;;;-147.86;100.00;-17609.17;105769;1257;61653;-55
2024/01/04 11:23:20;;;;;;;7.30;5.00;;;;;;;-147.86;100.00;-17609.17;105822;1253;60479;-47
2024/01/04 11:26:15;;;;;;;8.10;5.10;;;;;;;-147.86;100.00;-17609.17;105757;1252;72858;-52
2024/01/04 12:06:28;;;;;;;7.30;5.80;;;;;;;-147.86;100.00;-17609.17;102715;1290;600701;-49
2024/01/04 12:09:01;;;;;;;8.00;5.80;;;;;;;-147.86;100.00;-17609.17;104856;1264;60937;-51
2024/01/04 12:11:29;;;;;;;10.60;6.20;;;;;;;-147.86;100.00;-17609.17;104945;1269;59586;-52
2024/01/04 12:13:57;;;;;;;8.50;6.30;;;;;;;-147.86;100.00;-17609.17;104896;1270;69945;-52
2024/01/04 12:16:25;;;;;;;12.70;5.80;;;;;;;-147.86;100.00;-17609.17;104807;1270;64443;-49
2024/01/04 12:18:53;;;;;;;8.90;6.20;;;;;;;-147.86;100.00;-17609.17;104899;1269;71712;-53
2024/01/04 12:21:21;;;;;;;8.40;5.70;;;;;;;-147.86;100.00;-17609.17;105053;1269;61061;-50